Time;durP1;ratioP1;P1;durP2;ratioP2;P2;SDS_P1;SDS_P2;PMS_P1;PMS_P2;Temp;Humidity;BMP_temperature;BMP_pressure;BME280_temperature;BME280_humidity;BME280_pressure;Samples;Min_cycle;Max_cycle;Signal;HPM_P1;HPM_P2
2020/12/07 00:01:04;;;;;;;3.5;2.4;;;;;;;3.64;86.51465;918.2356;;;;
2020/12/07 00:03:30;;;;;;;2.6;2;;;;;;;3.65;86.12305;918.1184;;;;
2020/12/07 00:05:55;;;;;;;3.7;2;;;;;;;3.76;85.83008;918.095;;;;
2020/12/07 00:08:20;;;;;;;3.2;2.1;;;;;;;3.8;85.44434;918.0872;;;;
2020/12/07 00:10:50;;;;;;;3.3;2.2;;;;;;;3.47;86.37695;918.1286;;;;
2020/12/07 00:13:17;;;;;;;4.7;2.5;;;;;;;3.51;86.67969;917.9911;;;;
2020/12/07 00:15:43;;;;;;;2.3;1.5;;;;;;;3.5;86.54102;917.9163;;;;
2020/12/07 00:18:09;;;;;;;6.3;2.2;;;;;;;3.35;87.0957;917.9078;;;;
2020/12/07 00:20:34;;;;;;;3.8;2.1;;;;;;;3.16;87.9209;917.9084;;;;
2020/12/07 00:23:03;;;;;;;4.3;2.9;;;;;;;3.19;88.33105;917.8542;;;;
2020/12/07 00:25:28;;;;;;;3.8;2.2;;;;;;;3.14;88.48828;918.0624;;;;
2020/12/07 00:27:53;;;;;;;5.7;3;;;;;;;3.01;89.07715;918.2891;;;;
2020/12/07 00:30:18;;;;;;;3.9;2.6;;;;;;;2.97;89.37207;918.3027;;;;
2020/12/07 00:32:44;;;;;;;4.3;2.6;;;;;;;3.09;89.45508;918.2407;;;;
2020/12/07 00:35:09;;;;;;;4.8;2.5;;;;;;;3.28;88.88867;918.2693;;;;
2020/12/07 00:37:36;;;;;;;8.6;3.6;;;;;;;3.34;88.25977;918.3324;;;;
2020/12/07 00:40:01;;;;;;;4.6;2.9;;;;;;;3.28;88.3584;918.4124;;;;
2020/12/07 00:42:28;;;;;;;4.7;3.4;;;;;;;3.36;88.24316;918.3781;;;;
2020/12/07 00:44:53;;;;;;;7.6;3.5;;;;;;;3.35;88.58691;918.3929;;;;
2020/12/07 00:47:19;;;;;;;6.4;3.4;;;;;;;3.47;87.96387;918.485;;;;
2020/12/07 00:49:44;;;;;;;6.4;3.4;;;;;;;3.61;87.41699;918.5455;;;;
2020/12/07 00:52:10;;;;;;;10.1;4;;;;;;;3.62;87.21875;918.5936;;;;
2020/12/07 00:54:36;;;;;;;7.4;4.4;;;;;;;3.59;87.37012;918.7017;;;;
2020/12/07 00:57:01;;;;;;;3.8;2.8;;;;;;;3.72;86.83301;918.7497;;;;
2020/12/07 00:59:29;;;;;;;5.5;3;;;;;;;3.6;86.6084;918.7341;;;;
2020/12/07 01:01:55;;;;;;;5.1;3.1;;;;;;;3.61;86.63086;918.7375;;;;
2020/12/07 01:04:23;;;;;;;3.8;2.6;;;;;;;3.68;86.71289;918.707;;;;
2020/12/07 01:06:48;;;;;;;22.6;10.3;;;;;;;3.69;86.47852;918.7567;;;;
2020/12/07 01:09:14;;;;;;;17.1;7;;;;;;;3.59;86.50488;918.6121;;;;
2020/12/07 01:11:41;;;;;;;15.9;8.2;;;;;;;3.59;86.52734;918.7301;;;;
2020/12/07 01:14:06;;;;;;;22.7;13;;;;;;;3.64;86.18848;918.895;;;;
2020/12/07 01:16:32;;;;;;;8.8;5.3;;;;;;;3.62;86.39844;918.9824;;;;
2020/12/07 01:18:58;;;;;;;12.6;7.6;;;;;;;3.51;86.71387;919.0005;;;;
2020/12/07 01:21:23;;;;;;;8.4;5.3;;;;;;;3.38;87.15723;918.9366;;;;
2020/12/07 01:23:50;;;;;;;10.4;4.7;;;;;;;3.27;87.62891;919.0461;;;;
2020/12/07 01:26:15;;;;;;;6.6;3.7;;;;;;;3.4;87.54297;919.1916;;;;
2020/12/07 01:28:41;;;;;;;4.6;3.2;;;;;;;3.58;87.07422;919.3768;;;;
2020/12/07 01:31:06;;;;;;;8.6;4.2;;;;;;;3.55;86.69824;919.4372;;;;
2020/12/07 01:33:31;;;;;;;4;2.5;;;;;;;3.44;87.39551;919.4603;;;;
2020/12/07 01:35:57;;;;;;;5.6;2.6;;;;;;;3.65;86.8418;919.5906;;;;
2020/12/07 01:38:24;;;;;;;3.1;2.2;;;;;;;3.74;86.16211;919.6484;;;;
2020/12/07 01:40:51;;;;;;;4.3;2.4;;;;;;;3.68;86.17383;919.6836;;;;
2020/12/07 01:43:16;;;;;;;3;1.6;;;;;;;3.7;85.75195;919.6649;;;;
2020/12/07 01:45:42;;;;;;;2.9;2.1;;;;;;;3.54;86.42676;919.6339;;;;
2020/12/07 01:48:09;;;;;;;4.9;2.8;;;;;;;3.63;86.47754;919.644;;;;
2020/12/07 01:50:33;;;;;;;4.8;2.9;;;;;;;3.71;86.12305;919.7515;;;;
2020/12/07 01:53:00;;;;;;;4.7;2.2;;;;;;;3.66;85.93359;919.7701;;;;
2020/12/07 01:55:25;;;;;;;3;2.1;;;;;;;3.7;85.77441;919.6797;;;;
2020/12/07 01:57:51;;;;;;;3.5;2.4;;;;;;;3.6;86.02246;919.642;;;;
2020/12/07 02:00:25;;;;;;;3.1;2.3;;;;;;;3.53;86.25488;919.5504;;;;
2020/12/07 02:03:01;;;;;;;2.8;2.1;;;;;;;3.5;86.41797;919.4881;;;;
2020/12/07 02:05:39;;;;;;;4.2;2.5;;;;;;;3.47;86.40332;919.5375;;;;
2020/12/07 02:08:05;;;;;;;3.3;2;;;;;;;3.35;86.88086;919.454;;;;
2020/12/07 02:10:33;;;;;;;2.8;2.2;;;;;;;3.4;87.07129;919.5172;;;;
2020/12/07 02:13:03;;;;;;;2.4;1.7;;;;;;;3.46;86.72461;919.48;;;;
2020/12/07 02:15:38;;;;;;;2.9;2.2;;;;;;;3.45;86.61035;919.4902;;;;
2020/12/07 02:18:07;;;;;;;5.6;2.5;;;;;;;3.51;86.23047;919.467;;;;
2020/12/07 02:20:32;;;;;;;2.1;1.4;;;;;;;3.47;86.21973;919.5839;;;;
2020/12/07 02:23:03;;;;;;;4.2;2.6;;;;;;;3.35;86.80176;919.6641;;;;
2020/12/07 02:25:33;;;;;;;6.8;2.6;;;;;;;3.25;87.35449;919.6516;;;;
2020/12/07 02:27:58;;;;;;;3.3;2.5;;;;;;;3.22;87.86523;919.6829;;;;
2020/12/07 02:30:23;;;;;;;3;1.7;;;;;;;3.07;88.36035;919.7382;;;;
2020/12/07 02:32:53;;;;;;;6.2;2.6;;;;;;;3;88.93066;919.7912;;;;
2020/12/07 02:35:18;;;;;;;1.8;1.5;;;;;;;3.14;88.86035;919.6553;;;;
2020/12/07 02:37:43;;;;;;;5.7;2.4;;;;;;;3.22;88.59473;919.7592;;;;
2020/12/07 02:40:20;;;;;;;2.3;1.8;;;;;;;3.11;89.09766;919.9083;;;;
2020/12/07 02:42:45;;;;;;;4.4;2;;;;;;;3.34;88.2168;919.9487;;;;
2020/12/07 02:45:12;;;;;;;3.9;2.4;;;;;;;3.47;87.65918;919.9709;;;;
2020/12/07 02:47:41;;;;;;;2.2;1.7;;;;;;;3.55;87.0918;919.9841;;;;
2020/12/07 02:50:06;;;;;;;4.1;2.7;;;;;;;3.59;86.85352;920.0142;;;;
2020/12/07 02:52:31;;;;;;;4.1;2.5;;;;;;;3.57;86.73535;920.0031;;;;
2020/12/07 02:54:57;;;;;;;4.8;2.4;;;;;;;3.51;86.64453;919.9807;;;;
2020/12/07 02:57:22;;;;;;;4.3;2.1;;;;;;;3.31;87.67969;920.0507;;;;
2020/12/07 02:59:51;;;;;;;4.2;2.4;;;;;;;3.31;87.87402;920.1208;;;;
2020/12/07 03:02:16;;;;;;;4;2.2;;;;;;;3.27;88;920.144;;;;
2020/12/07 03:04:45;;;;;;;4.6;2.2;;;;;;;3.42;87.50195;920.1122;;;;
2020/12/07 03:07:10;;;;;;;2.3;1.6;;;;;;;3.46;87.14941;920.1141;;;;
2020/12/07 03:09:39;;;;;;;4.1;2.4;;;;;;;3.5;86.85547;920.1577;;;;
2020/12/07 03:12:11;;;;;;;2.4;1.7;;;;;;;3.56;86.54102;920.0997;;;;
2020/12/07 03:14:40;;;;;;;6;2.9;;;;;;;3.51;86.61035;920.2119;;;;
2020/12/07 03:17:08;;;;;;;3.3;2.2;;;;;;;3.41;87.22852;920.2805;;;;
2020/12/07 03:19:33;;;;;;;3.9;2.4;;;;;;;3.49;87.03516;920.2205;;;;
2020/12/07 03:21:59;;;;;;;2.7;1.9;;;;;;;3.53;86.80469;920.2766;;;;
2020/12/07 03:24:27;;;;;;;3.8;2.5;;;;;;;3.53;86.66992;920.3411;;;;
2020/12/07 03:26:53;;;;;;;3.2;2.2;;;;;;;3.61;86.30664;920.2601;;;;
2020/12/07 03:29:18;;;;;;;3.8;2.3;;;;;;;3.67;86.08203;920.2989;;;;
2020/12/07 03:31:55;;;;;;;3.4;2;;;;;;;3.7;86.07813;920.3047;;;;
2020/12/07 03:34:26;;;;;;;3.6;2.2;;;;;;;3.68;86.17383;920.3439;;;;
2020/12/07 03:36:59;;;;;;;2.7;1.9;;;;;;;3.65;86.22461;920.3516;;;;
2020/12/07 03:39:28;;;;;;;2.9;1.9;;;;;;;3.63;86.19629;920.3664;;;;
2020/12/07 03:41:53;;;;;;;3.5;1.5;;;;;;;3.68;86.07227;920.4194;;;;
2020/12/07 03:44:22;;;;;;;3.7;1.8;;;;;;;3.66;85.56348;920.3123;;;;
2020/12/07 03:46:49;;;;;;;2.9;1.9;;;;;;;3.49;86.14648;920.3802;;;;
2020/12/07 03:49:16;;;;;;;2.2;1.5;;;;;;;3.44;86.62012;920.3649;;;;
2020/12/07 03:51:49;;;;;;;2.9;2.2;;;;;;;3.16;88.21289;920.3937;;;;
2020/12/07 03:54:29;;;;;;;2.1;1.5;;;;;;;3.28;88;920.3713;;;;
2020/12/07 03:57:12;;;;;;;3.3;2;;;;;;;3.21;87.93066;920.3661;;;;
2020/12/07 03:59:39;;;;;;;3.3;1.9;;;;;;;3.21;88.13281;920.3512;;;;
2020/12/07 04:02:54;;;;;;;2.7;1.7;;;;;;;3.26;87.89648;920.3422;;;;
2020/12/07 04:05:32;;;;;;;3.6;1.7;;;;;;;3.25;87.9375;920.3381;;;;
2020/12/07 04:08:02;;;;;;;5.2;2.1;;;;;;;3.4;87.45313;920.3635;;;;
2020/12/07 04:10:31;;;;;;;2.7;1.5;;;;;;;3.43;86.96484;920.4474;;;;
2020/12/07 04:13:00;;;;;;;3.7;2;;;;;;;3.38;87.24512;920.4625;;;;
2020/12/07 04:15:36;;;;;;;1.6;1.2;;;;;;;3.42;87.50391;920.5339;;;;
2020/12/07 04:18:13;;;;;;;2.4;1.5;;;;;;;3.49;87.26953;920.5123;;;;
2020/12/07 04:20:41;;;;;;;1.2;1.1;;;;;;;3.52;87.15137;920.4756;;;;
2020/12/07 04:23:09;;;;;;;2.2;1.4;;;;;;;3.58;86.91699;920.5413;;;;
2020/12/07 04:25:40;;;;;;;2.7;1.6;;;;;;;3.56;86.87793;920.4664;;;;
2020/12/07 04:28:05;;;;;;;0.7;0.7;;;;;;;3.51;86.80176;920.6053;;;;
2020/12/07 04:30:37;;;;;;;3.2;1.6;;;;;;;3.35;87.24023;920.5968;;;;
2020/12/07 04:33:11;;;;;;;1.4;1;;;;;;;3.23;87.79785;920.5566;;;;
2020/12/07 04:35:42;;;;;;;2.2;1.4;;;;;;;3.24;88.10645;920.6227;;;;
2020/12/07 04:38:10;;;;;;;2.2;1.6;;;;;;;3.26;88.35547;920.6448;;;;
2020/12/07 04:40:35;;;;;;;1.9;1.3;;;;;;;3.36;88.08594;920.6638;;;;
2020/12/07 04:43:03;;;;;;;1.9;1.3;;;;;;;3.5;87.67578;920.7272;;;;
2020/12/07 04:45:35;;;;;;;1.4;1.1;;;;;;;3.56;87.2959;920.7339;;;;
2020/12/07 04:48:13;;;;;;;2;1.4;;;;;;;3.55;87.41699;920.7449;;;;
2020/12/07 04:50:39;;;;;;;0.9;0.9;;;;;;;3.6;87.16992;920.7651;;;;
2020/12/07 04:53:04;;;;;;;4.7;2.3;;;;;;;3.67;87.01465;920.7916;;;;
2020/12/07 04:55:30;;;;;;;3.8;2.5;;;;;;;3.71;86.76367;920.8139;;;;
2020/12/07 04:57:57;;;;;;;2.5;1.9;;;;;;;3.72;86.5625;920.7849;;;;
2020/12/07 05:00:38;;;;;;;5.7;3;;;;;;;3.57;86.71484;920.8253;;;;
2020/12/07 05:03:14;;;;;;;3.1;1.8;;;;;;;3.7;86.54785;920.8279;;;;
2020/12/07 05:05:41;;;;;;;1.6;1.4;;;;;;;3.63;86.77148;920.7686;;;;
2020/12/07 05:08:17;;;;;;;1.6;1.3;;;;;;;3.55;87.19238;920.8024;;;;
2020/12/07 05:10:54;;;;;;;1.9;1.3;;;;;;;3.55;87.08008;920.8141;;;;
2020/12/07 05:13:26;;;;;;;2.6;1.7;;;;;;;3.73;86.64551;920.8644;;;;
2020/12/07 05:16:02;;;;;;;3.9;1.6;;;;;;;3.76;86.29102;920.826;;;;
2020/12/07 05:18:30;;;;;;;5.4;2.8;;;;;;;3.71;86.53906;920.824;;;;
2020/12/07 05:20:57;;;;;;;3.4;2.1;;;;;;;3.64;87.09668;920.8212;;;;
2020/12/07 05:23:30;;;;;;;5.6;2.2;;;;;;;3.7;86.98828;920.854;;;;
2020/12/07 05:25:56;;;;;;;3.1;1.7;;;;;;;3.72;86.60742;920.8486;;;;
2020/12/07 05:28:27;;;;;;;2.1;1.5;;;;;;;3.58;86.87207;920.8363;;;;
2020/12/07 05:30:53;;;;;;;2.6;1.7;;;;;;;3.52;87.24121;920.8784;;;;
2020/12/07 05:33:21;;;;;;;1.8;1.5;;;;;;;3.56;87.48438;920.9408;;;;
2020/12/07 05:35:52;;;;;;;1.7;1.3;;;;;;;3.44;88.03516;921.0022;;;;
2020/12/07 05:38:23;;;;;;;2.5;1.8;;;;;;;3.53;88.00684;921.0059;;;;
2020/12/07 05:40:55;;;;;;;3.1;1.6;;;;;;;3.58;87.42285;921.0417;;;;
2020/12/07 05:43:22;;;;;;;2.1;1.2;;;;;;;3.61;87.08008;921.1201;;;;
2020/12/07 05:46:01;;;;;;;1.9;1.6;;;;;;;3.59;86.91895;921.1386;;;;
2020/12/07 05:48:35;;;;;;;1.3;1.2;;;;;;;3.44;87.6084;921.1682;;;;
2020/12/07 05:51:02;;;;;;;3;1.6;;;;;;;3.56;87.38379;921.2619;;;;
2020/12/07 05:53:42;;;;;;;0.6;0.6;;;;;;;3.65;86.9541;921.266;;;;
2020/12/07 05:56:17;;;;;;;2.8;1.9;;;;;;;3.67;86.74512;921.2645;;;;
2020/12/07 05:58:42;;;;;;;1.5;1.2;;;;;;;3.43;87.17773;921.2372;;;;
2020/12/07 06:01:18;;;;;;;2.7;1.9;;;;;;;3.33;88.05566;921.3045;;;;
2020/12/07 06:03:45;;;;;;;3.1;1.2;;;;;;;3.47;87.78027;921.3823;;;;
2020/12/07 06:06:12;;;;;;;1.5;1.4;;;;;;;3.56;87.76563;921.3617;;;;
2020/12/07 06:08:38;;;;;;;5.1;1.8;;;;;;;3.64;87.50098;921.3162;;;;
2020/12/07 06:11:07;;;;;;;1.2;1.1;;;;;;;3.63;87.29883;921.3541;;;;
2020/12/07 06:13:42;;;;;;;1.3;1.2;;;;;;;3.61;87.22852;921.3917;;;;
2020/12/07 06:16:14;;;;;;;3;2;;;;;;;3.63;86.97363;921.3681;;;;
2020/12/07 06:18:41;;;;;;;3.2;2;;;;;;;3.68;86.73535;921.4551;;;;
2020/12/07 06:21:06;;;;;;;1.5;1.4;;;;;;;3.77;86.39551;921.5825;;;;
2020/12/07 06:23:31;;;;;;;5.3;2.4;;;;;;;3.82;86.34863;921.587;;;;
2020/12/07 06:25:57;;;;;;;4.3;2.3;;;;;;;3.84;86.30762;921.6061;;;;
2020/12/07 06:28:36;;;;;;;4.3;2.6;;;;;;;3.84;86.41797;921.5368;;;;
2020/12/07 06:31:01;;;;;;;5.2;2.2;;;;;;;3.73;86.33105;921.6184;;;;
2020/12/07 06:33:27;;;;;;;2.1;1.8;;;;;;;3.7;86.10059;921.6953;;;;
2020/12/07 06:35:53;;;;;;;2.5;1.3;;;;;;;3.66;86.32715;921.6769;;;;
2020/12/07 06:38:21;;;;;;;2.4;1.3;;;;;;;3.63;86.95117;921.7081;;;;
2020/12/07 06:41:01;;;;;;;2.6;1.7;;;;;;;3.73;86.83398;921.7198;;;;
2020/12/07 06:43:29;;;;;;;1.8;1.4;;;;;;;3.59;87.08789;921.6783;;;;
2020/12/07 06:45:57;;;;;;;3.8;2;;;;;;;3.44;87.62891;921.6967;;;;
2020/12/07 06:48:26;;;;;;;3.4;1.8;;;;;;;3.53;87.58008;921.7392;;;;
2020/12/07 06:50:53;;;;;;;6.4;2.7;;;;;;;3.58;87.54688;921.7813;;;;
2020/12/07 06:53:24;;;;;;;2.6;2;;;;;;;3.59;87.61719;921.835;;;;
2020/12/07 06:55:44;;;;;;;3.8;2.2;;;;;;;3.67;87.59863;921.8501;;;;
2020/12/07 06:58:09;;;;;;;2.4;1.9;;;;;;;3.68;87.33105;921.8084;;;;
2020/12/07 07:00:44;;;;;;;4.6;2.1;;;;;;;3.71;87.12305;921.778;;;;
2020/12/07 07:03:10;;;;;;;2.6;1.9;;;;;;;3.59;86.85156;921.7381;;;;
2020/12/07 07:05:44;;;;;;;4.4;2.3;;;;;;;3.55;87.14746;921.7874;;;;
2020/12/07 07:08:13;;;;;;;4.4;2.7;;;;;;;3.7;86.98633;921.8353;;;;
2020/12/07 07:10:38;;;;;;;5.6;3.2;;;;;;;3.63;87.65723;921.8647;;;;
2020/12/07 07:13:12;;;;;;;9.6;3.5;;;;;;;3.67;87.7002;921.9437;;;;
2020/12/07 07:15:47;;;;;;;10.1;3.7;;;;;;;3.7;87.35742;921.8684;;;;
2020/12/07 07:18:25;;;;;;;3.4;2.2;;;;;;;3.78;86.98047;921.8171;;;;
2020/12/07 07:20:55;;;;;;;4.1;2.5;;;;;;;3.85;86.62402;921.9274;;;;
2020/12/07 07:23:24;;;;;;;0.9;0.8;;;;;;;3.84;86.59766;921.8596;;;;
2020/12/07 07:25:55;;;;;;;2.6;1.6;;;;;;;3.66;87.47363;921.7383;;;;
2020/12/07 07:28:20;;;;;;;1.7;1.4;;;;;;;3.81;86.71582;921.8397;;;;
2020/12/07 07:30:52;;;;;;;2.1;1.5;;;;;;;3.91;86.26563;921.8845;;;;
2020/12/07 07:33:17;;;;;;;3.3;2;;;;;;;3.95;85.75781;921.8416;;;;
2020/12/07 07:35:47;;;;;;;11.5;4.4;;;;;;;3.87;85.7168;921.9567;;;;
2020/12/07 07:38:12;;;;;;;23;9.7;;;;;;;4.05;85.49707;921.9709;;;;
2020/12/07 07:40:49;;;;;;;36.1;15.4;;;;;;;4.2;85.24316;921.9426;;;;
2020/12/07 07:43:14;;;;;;;35.4;11.8;;;;;;;3.99;85.34766;921.9103;;;;
2020/12/07 07:45:48;;;;;;;20.3;8.7;;;;;;;4.13;85.41016;921.8745;;;;
2020/12/07 07:48:15;;;;;;;16.8;8.4;;;;;;;4.28;84.95508;921.9033;;;;
2020/12/07 07:50:58;;;;;;;10.1;3.8;;;;;;;4.29;84.80078;921.9916;;;;
2020/12/07 07:59:00;;;;;;;3;1.9;;;;;;;4.14;85.53516;922.0226;;;;
2020/12/07 08:01:27;;;;;;;3.1;2.1;;;;;;;4.16;84.87598;922.0873;;;;
2020/12/07 08:15:23;;;;;;;2.1;1.5;;;;;;;4.09;86.22168;922.2562;;;;
2020/12/07 08:17:28;;;;;;;2.7;1.7;;;;;;;4.35;85.34082;922.2236;;;;
2020/12/07 08:19:52;;;;;;;4.5;2.8;;;;;;;4.46;84.38477;922.3003;;;;
2020/12/07 08:22:18;;;;;;;4.5;3;;;;;;;4.62;83.31152;922.3085;;;;
2020/12/07 08:24:43;;;;;;;2.3;1.7;;;;;;;4.62;83.33398;922.3597;;;;
2020/12/07 08:27:10;;;;;;;2;1;;;;;;;4.71;83.34082;922.3642;;;;
2020/12/07 08:29:35;;;;;;;2.4;1.2;;;;;;;4.74;83.3457;922.3895;;;;
2020/12/07 08:32:02;;;;;;;1.6;1.3;;;;;;;4.83;82.6543;922.3833;;;;
2020/12/07 08:34:27;;;;;;;2.3;1.4;;;;;;;4.71;82.86914;922.4927;;;;
2020/12/07 08:36:54;;;;;;;1.7;1.2;;;;;;;4.84;82.62305;922.5402;;;;
2020/12/07 08:39:19;;;;;;;1.9;1.1;;;;;;;4.91;82.28613;922.5122;;;;
2020/12/07 08:41:44;;;;;;;2.5;1.7;;;;;;;5.01;81.89063;922.4964;;;;
2020/12/07 08:44:09;;;;;;;2.2;1.6;;;;;;;4.97;81.92871;922.3776;;;;
2020/12/07 08:46:36;;;;;;;3.8;2;;;;;;;4.98;82.36816;922.4604;;;;
2020/12/07 08:49:01;;;;;;;2.3;1.5;;;;;;;5.07;81.43848;922.5825;;;;
2020/12/07 08:51:27;;;;;;;1.6;1.3;;;;;;;4.84;81.75586;922.5781;;;;
2020/12/07 08:53:51;;;;;;;2;1.4;;;;;;;4.73;81.91406;922.6898;;;;
2020/12/07 08:56:19;;;;;;;2.4;1.7;;;;;;;4.63;82.45801;922.7209;;;;
2020/12/07 08:58:44;;;;;;;3.9;2.2;;;;;;;4.56;82.7832;922.6122;;;;
2020/12/07 09:01:09;;;;;;;3.4;2.4;;;;;;;4.5;83.23047;922.6378;;;;
2020/12/07 09:03:35;;;;;;;3.6;2.4;;;;;;;4.55;83.53418;922.657;;;;
2020/12/07 09:05:59;;;;;;;3.2;1.9;;;;;;;4.72;83.58105;922.7316;;;;
2020/12/07 09:08:24;;;;;;;3.5;2.4;;;;;;;4.87;83.51855;922.7729;;;;
2020/12/07 09:10:55;;;;;;;4.2;2.2;;;;;;;5.03;82.62598;922.7764;;;;
2020/12/07 09:13:20;;;;;;;4.1;2.6;;;;;;;4.93;81.95215;922.722;;;;
2020/12/07 09:15:47;;;;;;;1.9;1.4;;;;;;;4.85;81.69043;922.7184;;;;
2020/12/07 09:18:15;;;;;;;1.9;1.4;;;;;;;4.99;82.08789;922.6781;;;;
2020/12/07 09:20:40;;;;;;;2.2;1.7;;;;;;;5.03;82.10742;922.6739;;;;
2020/12/07 09:23:06;;;;;;;2.6;1.6;;;;;;;5.09;82.01465;922.7459;;;;
2020/12/07 09:25:31;;;;;;;4.4;1.7;;;;;;;5.11;81.83008;922.7421;;;;
2020/12/07 09:27:56;;;;;;;1.7;1.4;;;;;;;5.29;81.35547;922.7068;;;;
2020/12/07 09:30:21;;;;;;;1.4;1.1;;;;;;;5.46;80.50977;922.7234;;;;
2020/12/07 09:32:47;;;;;;;4;1.9;;;;;;;5.62;79.70313;922.7495;;;;
2020/12/07 09:35:13;;;;;;;3.3;2;;;;;;;5.69;78.19141;922.7378;;;;
2020/12/07 09:37:37;;;;;;;2.6;1.6;;;;;;;5.82;78.02441;922.736;;;;
2020/12/07 09:40:02;;;;;;;3.2;1.8;;;;;;;5.97;77.67969;922.7933;;;;
2020/12/07 09:42:28;;;;;;;3.7;1.9;;;;;;;6.19;76.81641;922.752;;;;
2020/12/07 09:44:53;;;;;;;1.9;1.4;;;;;;;6.31;75.78418;922.7507;;;;
2020/12/07 09:47:18;;;;;;;2.8;1.6;;;;;;;6.4;75.33789;922.7356;;;;
2020/12/07 09:49:43;;;;;;;2.1;1.4;;;;;;;6.45;74.66699;922.7043;;;;
2020/12/07 09:52:09;;;;;;;1.9;1.6;;;;;;;6.49;75.00293;922.5944;;;;
2020/12/07 09:54:38;;;;;;;2.6;1.3;;;;;;;6.65;74.38379;922.5977;;;;
2020/12/07 09:57:01;;;;;;;3;2.1;;;;;;;6.7;74.71094;922.5928;;;;
2020/12/07 09:59:26;;;;;;;3.8;2.1;;;;;;;6.79;74.06934;922.5666;;;;
2020/12/07 10:01:51;;;;;;;3.4;2;;;;;;;6.99;73.45898;922.6115;;;;
2020/12/07 10:04:17;;;;;;;2;1.7;;;;;;;7.03;73.12598;922.4598;;;;
2020/12/07 10:06:42;;;;;;;3.7;2.3;;;;;;;7.17;72.22168;922.5416;;;;
2020/12/07 10:09:09;;;;;;;3.2;2.2;;;;;;;7.17;71.50781;922.4268;;;;
2020/12/07 10:11:34;;;;;;;5.3;2.1;;;;;;;7.26;71.125;922.4631;;;;
2020/12/07 10:14:02;;;;;;;3;2;;;;;;;7.02;71.69727;922.4906;;;;
2020/12/07 10:16:27;;;;;;;3.9;2.4;;;;;;;7.1;71.08691;922.53;;;;
2020/12/07 10:18:57;;;;;;;2.3;1.9;;;;;;;6.83;72.20898;922.5762;;;;
2020/12/07 10:21:28;;;;;;;2.1;1.4;;;;;;;6.48;72.30762;922.6727;;;;
2020/12/07 10:23:53;;;;;;;2.5;1.5;;;;;;;6.39;73.38965;922.6322;;;;
2020/12/07 10:26:18;;;;;;;3.5;1.8;;;;;;;6.32;74.64551;922.5863;;;;
2020/12/07 10:28:43;;;;;;;3.9;2.1;;;;;;;6.27;75.6084;922.5208;;;;
2020/12/07 10:31:10;;;;;;;5.4;1.9;;;;;;;6.19;76.08008;922.4746;;;;
2020/12/07 10:33:35;;;;;;;4.8;2.1;;;;;;;6.13;75.44727;922.5197;;;;
2020/12/07 10:36:02;;;;;;;2.5;1.7;;;;;;;6.15;76.36719;922.428;;;;
2020/12/07 10:38:27;;;;;;;4.2;2;;;;;;;6.28;76.52539;922.5673;;;;
2020/12/07 10:40:52;;;;;;;4.3;2.3;;;;;;;6.23;75.98438;922.5539;;;;
2020/12/07 10:43:20;;;;;;;2.7;1.6;;;;;;;6.36;75.75977;922.5317;;;;
2020/12/07 10:45:45;;;;;;;2.3;1.6;;;;;;;6.32;75.94531;922.6717;;;;
2020/12/07 10:48:13;;;;;;;2.8;1.7;;;;;;;6.65;75.25586;922.6514;;;;
2020/12/07 10:50:39;;;;;;;3.9;2.2;;;;;;;6.8;74.22852;922.6473;;;;
2020/12/07 10:53:06;;;;;;;5.4;2.6;;;;;;;6.58;75.52637;922.5745;;;;
2020/12/07 10:55:32;;;;;;;4.8;2.3;;;;;;;6.71;74.48633;922.6347;;;;
2020/12/07 10:58:00;;;;;;;4.6;2.8;;;;;;;6.53;74.77148;922.6696;;;;
2020/12/07 11:00:25;;;;;;;2;1.7;;;;;;;6.47;74.83887;922.6316;;;;
2020/12/07 11:02:51;;;;;;;2.1;1.6;;;;;;;6.47;74.5332;922.6031;;;;
2020/12/07 11:05:17;;;;;;;2.5;1.7;;;;;;;6.36;75.125;922.6227;;;;
2020/12/07 11:07:45;;;;;;;2.8;1.9;;;;;;;6.43;74.82227;922.5803;;;;
2020/12/07 11:10:07;;;;;;;1.9;1.6;;;;;;;6.29;75.15918;922.5057;;;;
2020/12/07 11:12:37;;;;;;;2.1;1.7;;;;;;;6.45;74.39551;922.5407;;;;
2020/12/07 11:14:59;;;;;;;2.1;1.5;;;;;;;6.27;74.95215;922.5714;;;;
2020/12/07 11:17:26;;;;;;;3.2;1.7;;;;;;;6.14;75.00781;922.5244;;;;
2020/12/07 11:19:51;;;;;;;1.9;1.2;;;;;;;6.34;74.80664;922.5358;;;;
2020/12/07 11:22:17;;;;;;;2.2;1.3;;;;;;;6.43;74.07617;922.4743;;;;
2020/12/07 11:24:42;;;;;;;2.3;1;;;;;;;6.22;75.44141;922.4694;;;;
2020/12/07 11:27:09;;;;;;;1.1;0.9;;;;;;;6.37;75.08301;922.4637;;;;
2020/12/07 11:29:34;;;;;;;1.6;1;;;;;;;6.21;75.85645;922.4481;;;;
2020/12/07 11:31:59;;;;;;;1.4;1.1;;;;;;;5.8;76.8125;922.4553;;;;
2020/12/07 11:34:24;;;;;;;1.3;1.1;;;;;;;5.55;77.69238;922.5541;;;;
2020/12/07 11:36:50;;;;;;;2.9;1.2;;;;;;;5.52;78.34082;922.5105;;;;
2020/12/07 11:39:30;;;;;;;1.6;0.8;;;;;;;5.6;77.54395;922.4294;;;;
2020/12/07 11:41:59;;;;;;;1.3;1.1;;;;;;;5.78;76.45703;922.3613;;;;
2020/12/07 11:44:12;;;;;;;1.1;0.9;;;;;;;5.83;76.63672;922.3522;;;;
2020/12/07 11:46:35;;;;;;;1.8;1;;;;;;;5.82;78.23828;922.3088;;;;
2020/12/07 11:48:59;;;;;;;0.9;0.7;;;;;;;5.97;77.20313;922.3075;;;;
2020/12/07 11:51:25;;;;;;;0.5;0.5;;;;;;;5.89;75.73145;922.259;;;;
2020/12/07 11:53:51;;;;;;;0.6;0.6;;;;;;;6.04;74.42578;922.2051;;;;
2020/12/07 11:56:15;;;;;;;4.8;1.1;;;;;;;6.29;74.41309;922.2141;;;;
2020/12/07 11:58:41;;;;;;;1.8;0.9;;;;;;;6.49;74.39063;922.2007;;;;
2020/12/07 12:01:06;;;;;;;0.6;0.6;;;;;;;6.68;73.46387;922.2204;;;;
2020/12/07 12:03:31;;;;;;;1.6;0.9;;;;;;;6.98;73.70508;922.1597;;;;
2020/12/07 12:05:56;;;;;;;1;0.7;;;;;;;7.11;70.06055;922.0748;;;;
2020/12/07 12:08:22;;;;;;;1;0.6;;;;;;;6.46;70.94824;922.0158;;;;
2020/12/07 12:10:52;;;;;;;0.4;0.4;;;;;;;6.82;71.95801;922.017;;;;
2020/12/07 12:13:17;;;;;;;2.1;1.2;;;;;;;6.83;71.29199;921.9988;;;;
2020/12/07 12:15:42;;;;;;;2.5;1.3;;;;;;;6.73;72.72461;921.968;;;;
2020/12/07 12:18:10;;;;;;;2.8;1.6;;;;;;;6.78;73.26563;921.8998;;;;
2020/12/07 12:20:37;;;;;;;2.4;1.4;;;;;;;6.89;72.85352;921.7842;;;;
2020/12/07 12:23:01;;;;;;;2.4;1.6;;;;;;;7.01;73.57715;921.7089;;;;
2020/12/07 12:25:27;;;;;;;2.6;1.9;;;;;;;7.14;73.71191;921.7098;;;;
2020/12/07 12:27:52;;;;;;;2.5;1.5;;;;;;;7.25;73.71777;921.663;;;;
2020/12/07 12:30:17;;;;;;;2.3;1.5;;;;;;;7.12;73.44727;921.6886;;;;
2020/12/07 12:32:44;;;;;;;3;1.7;;;;;;;7.21;73.81348;921.7209;;;;
2020/12/07 12:35:10;;;;;;;2.2;1.6;;;;;;;6.7;74.50586;921.6628;;;;
2020/12/07 12:37:35;;;;;;;4.3;2;;;;;;;6.47;75.05469;921.7224;;;;
2020/12/07 12:40:00;;;;;;;4.6;2.3;;;;;;;6.59;75.5166;921.6676;;;;
2020/12/07 12:42:28;;;;;;;3.2;2;;;;;;;6.98;76.43555;921.6225;;;;
2020/12/07 12:44:53;;;;;;;5.1;2.7;;;;;;;7.08;75.85156;921.6912;;;;
2020/12/07 12:47:20;;;;;;;3.9;2.3;;;;;;;6.39;76.90625;921.6828;;;;
2020/12/07 12:49:45;;;;;;;3.2;2.1;;;;;;;6.39;77.6416;921.7318;;;;
2020/12/07 12:52:10;;;;;;;2.9;2;;;;;;;5.88;77.88672;921.688;;;;
2020/12/07 12:54:35;;;;;;;7.8;1.6;;;;;;;5.4;80.48633;921.9661;;;;
2020/12/07 12:57:01;;;;;;;3;1.7;;;;;;;5.18;82.18066;922.0576;;;;
2020/12/07 12:59:26;;;;;;;4.6;2;;;;;;;4.81;83.14648;922.1096;;;;
2020/12/07 13:01:53;;;;;;;2;1.7;;;;;;;5.28;81.74902;922.1916;;;;
2020/12/07 13:04:18;;;;;;;2.3;1.3;;;;;;;5.27;81.09473;922.1962;;;;
2020/12/07 13:06:44;;;;;;;2.6;1.9;;;;;;;5.41;82.15625;922.1069;;;;
2020/12/07 13:09:09;;;;;;;2.8;1.6;;;;;;;5.8;81.36133;922.0012;;;;
2020/12/07 13:11:36;;;;;;;2.7;1.7;;;;;;;6.13;80.63379;922.0132;;;;
2020/12/07 13:14:01;;;;;;;19.5;11.4;;;;;;;6.17;81.8877;922.0834;;;;
2020/12/07 13:16:34;;;;;;;2.8;1.9;;;;;;;6.19;82.125;922.1033;;;;
2020/12/07 13:18:55;;;;;;;3.7;1.8;;;;;;;6.52;76.29785;922.052;;;;
2020/12/07 13:21:23;;;;;;;4;1.4;;;;;;;6.69;75.85059;922.12;;;;
2020/12/07 13:23:47;;;;;;;2.3;1.6;;;;;;;6.87;73.22266;922.0936;;;;
2020/12/07 13:26:15;;;;;;;0.9;0.8;;;;;;;6.98;72.23438;922.1027;;;;
2020/12/07 13:28:34;;;;;;;0.8;0.7;;;;;;;6.86;71.96582;922.0256;;;;
2020/12/07 13:31:00;;;;;;;1.1;0.7;;;;;;;6.66;71.30859;922.0306;;;;
2020/12/07 13:33:25;;;;;;;1;0.7;;;;;;;6.54;73.4834;921.9895;;;;
2020/12/07 13:35:50;;;;;;;0.7;0.7;;;;;;;6.62;74.10742;921.9991;;;;
2020/12/07 13:38:15;;;;;;;0.8;0.7;;;;;;;6.81;73.02051;921.9269;;;;
2020/12/07 13:40:44;;;;;;;1.1;0.9;;;;;;;6.79;71.77148;921.8681;;;;
2020/12/07 13:43:09;;;;;;;1.4;1;;;;;;;6.73;71.5459;921.877;;;;
2020/12/07 13:45:37;;;;;;;0.6;0.6;;;;;;;6.7;72.5498;921.9633;;;;
2020/12/07 13:48:03;;;;;;;0.6;0.6;;;;;;;6.93;71.55664;921.9993;;;;
2020/12/07 13:50:31;;;;;;;1.1;0.8;;;;;;;6.69;72.73926;921.9373;;;;
2020/12/07 13:52:55;;;;;;;1.3;0.9;;;;;;;6.37;74.90137;922.0069;;;;
2020/12/07 13:55:25;;;;;;;0.9;0.8;;;;;;;6.26;75.49316;922.0181;;;;
2020/12/07 13:57:49;;;;;;;1.3;0.8;;;;;;;6.29;74.93262;921.9659;;;;
2020/12/07 14:00:21;;;;;;;0.7;0.7;;;;;;;6.03;75.7002;922.003;;;;
2020/12/07 14:02:51;;;;;;;0.5;0.5;;;;;;;5.82;75.61816;922.0402;;;;
2020/12/07 14:05:20;;;;;;;1.2;0.7;;;;;;;5.63;75.75391;922.0547;;;;
2020/12/07 14:07:45;;;;;;;0.6;0.6;;;;;;;5.69;75.92188;922.0414;;;;
2020/12/07 14:10:15;;;;;;;0.3;0.3;;;;;;;5.46;76.35547;922.1409;;;;
2020/12/07 14:12:39;;;;;;;0.7;0.7;;;;;;;5.33;76.62695;922.0946;;;;
2020/12/07 14:15:05;;;;;;;0.7;0.6;;;;;;;5.45;76.58984;922.1323;;;;
2020/12/07 14:17:35;;;;;;;1.1;0.7;;;;;;;5.25;78.42773;922.1448;;;;
2020/12/07 14:20:03;;;;;;;2.2;1;;;;;;;5.33;80.29297;922.123;;;;
2020/12/07 14:24:57;;;;;;;3.8;1.8;;;;;;;5.03;81.375;922.1085;;;;
2020/12/07 14:27:29;;;;;;;2.3;1.7;;;;;;;4.56;82.62402;922.2189;;;;
2020/12/07 14:30:04;;;;;;;3;1.8;;;;;;;4.26;83.72461;922.231;;;;
2020/12/07 14:41:46;;;;;;;2.6;1.9;;;;;;;3.72;87.68848;922.2944;;;;
2020/12/07 14:44:12;;;;;;;2.1;1.8;;;;;;;3.75;87.51465;922.1616;;;;
2020/12/07 14:46:38;;;;;;;4.1;2.3;;;;;;;3.77;87.75391;922.2578;;;;
2020/12/07 14:49:03;;;;;;;8.5;2.8;;;;;;;3.93;87.30176;922.2657;;;;
2020/12/07 14:51:35;;;;;;;4;1.9;;;;;;;4.09;86.60645;922.2358;;;;
2020/12/07 14:53:54;;;;;;;4.9;1.9;;;;;;;4.2;85.77148;922.2538;;;;
2020/12/07 14:56:26;;;;;;;5.9;2.6;;;;;;;4.26;85.40137;922.238;;;;
2020/12/07 14:59:41;;;;;;;5;2.4;;;;;;;4.21;85.58398;922.307;;;;
2020/12/07 15:01:34;;;;;;;4.1;2.1;;;;;;;4.17;85.77734;922.2332;;;;
2020/12/07 15:04:00;;;;;;;3.8;2.4;;;;;;;4.26;85.21191;922.1947;;;;
2020/12/07 15:06:00;;;;;;;3.1;2.6;;;;;;;4.35;84.80078;922.1267;;;;
2020/12/07 15:09:33;;;;;;;5;2.4;;;;;;;4.34;85.2041;922.1951;;;;